Startpagina
METAR-TAF:

METAR-TAF

Vliegvelden :

Wittmund, Duitsland

breedte: 53-33N, lengte: 007-40E, hoogte: 8 m

Actueel weer

Dit bericht is 49 minuten geleden gemaakt, om 21:20 UTC
Wind 5 kt uit het oostnoordoosten
Temperatuur 18°C
Vochtigheid 73%
Druk 1014 hPa
Zicht 10 km of meer
Weinig wolken op 4000 ft

METAR: ETNT 162120Z 06005KT 9999 FEW040 18/13 Q1014 BLU+

Tijdstip: 00:09 (22:09 UTC)

Verwachting

Dit bericht is 3 uur en het 9 minuten geleden gemaakt, om 19:00 UTC
Verwachting geldig van 16 om 20 UTC tot 17 om 05 UTC
Wind 8 kt uit het noordoosten
Zicht 10 km of meer
Weinig wolken op 4000 ft
Kans 30%
van 17 om 01 UTC tot 17 om 05 UTC
Wind 3 kt uit het oosten
Zicht: 1000 m
Onbewolkt
mistbanken

TAF: ETNT 161900Z 1620/1705 05008KT 9999 NSW FEW040 PROB30 1701/1705 10003KT 1000 BCFG SKC BY ETGL

Waarnemingen en weersverwachtingen van meer dan 4000 vliegvelden (METAR en TAF).

De beschikbare stations zijn de gele en rode punten op de kaart.

Ga met uw muis naar het station om de naam te zien.

Klik dan om waarnemingen en weersverwachtingen te zien.

kaart wijzigen: klik op de groene knoppen met een zwart kruis om in te zoomen, op de groene knop met een streepje om uit te zoomen of op de groene pijlen voor aangrenzende kaarten.


METAR-TAF: